createdAt,value
2022-10-19T00:01:01.173Z,7.25
2022-10-19T00:06:53.637Z,8.52
2022-10-19T00:18:45.706Z,7.75
2022-10-19T00:24:37.979Z,7.72
2022-10-19T00:30:30.219Z,7.22
2022-10-19T00:36:24.605Z,6.82
2022-10-19T00:42:17.045Z,5.97
2022-10-19T00:48:09.740Z,5.82
2022-10-19T00:54:03.499Z,6.17
2022-10-19T00:59:56.029Z,4.97
2022-10-19T01:05:48.140Z,6.60
2022-10-19T01:11:40.636Z,5.93
2022-10-19T01:17:32.801Z,7.38
2022-10-19T01:23:54.098Z,7.90
2022-10-19T01:30:00.458Z,7.40
2022-10-19T01:35:59.045Z,7.63
2022-10-19T01:41:58.118Z,6.50
2022-10-19T01:47:58.925Z,6.90
2022-10-19T01:53:52.678Z,7.13
2022-10-19T02:05:38.410Z,7.80
2022-10-19T02:11:31.747Z,7.50
2022-10-19T02:17:29.447Z,8.85
2022-10-19T02:23:25.506Z,6.82
2022-10-19T02:29:18.365Z,7.75
2022-10-19T02:35:10.961Z,9.88
2022-10-19T02:41:14.638Z,10.27
2022-10-19T02:47:13.000Z,10.63
2022-10-19T02:53:05.272Z,9.18
2022-10-19T02:58:57.344Z,10.60
2022-10-19T03:04:49.272Z,10.30
2022-10-19T03:10:41.506Z,9.18
2022-10-19T03:16:34.168Z,10.40
2022-10-19T03:22:26.414Z,9.93
2022-10-19T03:28:18.368Z,9.02
2022-10-19T03:34:10.284Z,8.40
2022-10-19T03:40:03.489Z,9.70
2022-10-19T03:45:55.549Z,9.10
2022-10-19T03:51:47.798Z,9.85
2022-10-19T03:57:40.388Z,9.57
2022-10-19T04:03:32.369Z,8.75
2022-10-19T04:09:25.721Z,9.98
2022-10-19T04:15:19.781Z,9.67
2022-10-19T04:21:23.132Z,10.98
2022-10-19T04:27:15.430Z,10.82
2022-10-19T04:33:07.520Z,9.18
2022-10-19T04:38:59.676Z,9.55
2022-10-19T04:44:51.488Z,10.25
2022-10-19T04:50:43.768Z,9.23
2022-10-19T04:56:46.748Z,8.35
2022-10-19T05:02:42.728Z,6.80
2022-10-19T05:08:34.738Z,8.52
2022-10-19T05:20:24.279Z,7.57
2022-10-19T05:26:20.427Z,6.80
2022-10-19T05:32:12.471Z,5.32
2022-10-19T05:38:04.774Z,5.43
2022-10-19T05:43:58.146Z,4.95
2022-10-19T05:49:50.679Z,4.22
2022-10-19T05:55:43.898Z,5.03
2022-10-19T06:01:35.777Z,4.30
2022-10-19T06:07:27.819Z,3.83
2022-10-19T06:13:20.183Z,3.22
2022-10-19T06:19:12.936Z,3.30
2022-10-19T06:25:05.099Z,4.22
2022-10-19T06:30:58.456Z,3.50
2022-10-19T06:36:52.026Z,3.83
2022-10-19T06:42:43.808Z,3.08
2022-10-19T06:48:36.919Z,3.63
2022-10-19T06:54:28.928Z,3.88
2022-10-19T07:00:23.654Z,4.40
2022-10-19T07:06:15.889Z,3.00
2022-10-19T07:12:10.936Z,3.25
2022-10-19T07:18:03.935Z,3.60
2022-10-19T07:23:55.877Z,3.05
2022-10-19T07:29:48.719Z,3.20
2022-10-19T07:35:40.969Z,3.53
2022-10-19T07:41:33.538Z,1.83
2022-10-19T07:47:25.598Z,2.65
2022-10-19T07:53:17.848Z,3.45
2022-10-19T07:59:10.498Z,2.47
2022-10-19T08:05:07.471Z,1.85
2022-10-19T08:11:13.756Z,2.80
2022-10-19T08:17:07.349Z,1.87
2022-10-19T08:23:00.509Z,1.63
2022-10-19T08:28:53.035Z,2.00
2022-10-19T08:34:45.218Z,1.75
2022-10-19T08:40:37.550Z,1.40
2022-10-19T08:46:40.221Z,1.25
2022-10-19T08:52:34.657Z,1.55
2022-10-19T08:58:39.667Z,1.25
2022-10-19T09:04:42.586Z,1.40
2022-10-19T09:10:37.518Z,1.60
2022-10-19T09:16:30.502Z,1.27
2022-10-19T09:22:28.658Z,1.90
2022-10-19T09:28:39.713Z,1.30
2022-10-19T09:34:37.088Z,0.80
2022-10-19T09:40:31.040Z,1.05
2022-10-19T09:46:24.305Z,1.10
2022-10-19T09:52:45.505Z,0.80
2022-10-19T09:58:47.018Z,1.00
2022-10-19T10:04:39.359Z,1.08
2022-10-19T10:10:36.500Z,1.05
2022-10-19T10:16:33.955Z,0.82
2022-10-19T10:22:31.055Z,1.15
2022-10-19T10:28:25.939Z,1.20
2022-10-19T10:34:46.006Z,0.73
2022-10-19T10:40:49.587Z,0.70
2022-10-19T10:46:52.106Z,0.75
2022-10-19T10:52:56.643Z,0.70
2022-10-19T10:58:50.907Z,0.60
2022-10-19T11:04:52.163Z,0.55
2022-10-19T11:11:07.145Z,0.95
2022-10-19T11:17:03.985Z,0.60
2022-10-19T11:23:07.380Z,0.75
2022-10-19T11:29:18.676Z,0.43
2022-10-19T11:35:23.559Z,0.50
2022-10-19T11:41:30.104Z,0.70
2022-10-19T11:47:30.099Z,0.40
2022-10-19T11:53:31.641Z,0.25
2022-10-19T11:59:42.944Z,0.50
2022-10-19T12:05:41.458Z,0.77
2022-10-19T12:11:52.243Z,1.13
2022-10-19T12:17:47.795Z,0.75
2022-10-19T12:23:41.662Z,1.05
2022-10-19T12:35:34.542Z,0.77
2022-10-19T12:41:44.826Z,1.30
2022-10-19T12:47:36.717Z,0.70
2022-10-19T12:53:36.595Z,1.02
2022-10-19T12:59:35.499Z,1.08
2022-10-19T13:05:28.912Z,1.45
2022-10-19T13:11:21.401Z,0.90
2022-10-19T13:17:34.106Z,1.27
2022-10-19T13:23:26.689Z,0.87
2022-10-19T13:29:26.315Z,0.80
2022-10-19T13:35:25.104Z,1.05
2022-10-19T13:41:21.807Z,0.60
2022-10-19T13:47:33.226Z,1.02
2022-10-19T13:53:48.259Z,0.65
2022-10-19T13:59:59.380Z,0.90
2022-10-19T14:05:51.974Z,0.80
2022-10-19T14:11:46.099Z,1.45
2022-10-19T14:17:42.738Z,1.45
2022-10-19T14:23:36.393Z,1.35
2022-10-19T14:29:30.378Z,1.20
2022-10-19T14:35:31.558Z,0.80
2022-10-19T14:41:27.353Z,0.77
2022-10-19T14:47:31.019Z,0.90
2022-10-19T14:53:33.253Z,1.42
2022-10-19T14:59:36.757Z,1.40
2022-10-19T15:05:38.084Z,1.00
2022-10-19T15:11:39.359Z,1.23
2022-10-19T15:17:35.260Z,1.38
2022-10-19T15:24:28.358Z,0.93
2022-10-19T15:30:29.598Z,1.20
2022-10-19T15:36:23.344Z,2.08
2022-10-19T15:42:25.335Z,1.40
2022-10-19T15:48:31.040Z,1.48
2022-10-19T15:54:25.618Z,1.92
2022-10-19T16:00:22.687Z,1.83
2022-10-19T16:06:18.497Z,1.43
2022-10-19T16:12:14.917Z,1.30
2022-10-19T16:18:10.992Z,2.20
2022-10-19T16:24:05.291Z,1.85
2022-10-19T16:30:00.462Z,2.63
2022-10-19T16:36:05.704Z,2.42
2022-10-19T16:42:05.449Z,2.75
2022-10-19T16:47:57.338Z,4.47
2022-10-19T16:53:52.420Z,2.47
2022-10-19T16:59:47.182Z,2.22
2022-10-19T17:05:41.655Z,2.10
2022-10-19T17:11:36.560Z,1.83
2022-10-19T17:17:28.600Z,2.45
2022-10-19T17:23:20.778Z,2.30
2022-10-19T17:29:17.374Z,3.10
2022-10-19T17:35:09.399Z,3.05
2022-10-19T17:41:06.261Z,3.38
2022-10-19T17:46:59.239Z,2.40
2022-10-19T17:52:51.646Z,2.75
2022-10-19T17:58:43.918Z,2.95
2022-10-19T18:10:35.358Z,2.50
2022-10-19T18:16:32.104Z,3.92
2022-10-19T18:22:28.182Z,4.18
2022-10-19T18:28:22.182Z,4.57
2022-10-19T18:34:15.818Z,3.73
2022-10-19T18:40:08.030Z,4.25
2022-10-19T18:46:03.111Z,4.38
2022-10-19T18:51:57.890Z,4.18
2022-10-19T18:57:49.658Z,4.28
2022-10-19T19:03:44.070Z,6.17
2022-10-19T19:09:38.341Z,4.40
2022-10-19T19:15:31.002Z,8.43
2022-10-19T19:21:29.452Z,11.57
2022-10-19T19:27:27.140Z,10.90
2022-10-19T19:33:21.622Z,9.35
2022-10-19T19:39:18.929Z,9.60
2022-10-19T19:45:10.681Z,8.25
2022-10-19T19:51:03.056Z,9.82
2022-10-19T19:56:55.081Z,8.82
2022-10-19T20:02:56.007Z,9.20
2022-10-19T20:08:49.394Z,8.40
2022-10-19T20:14:42.372Z,9.27
2022-10-19T20:20:35.793Z,8.67
2022-10-19T20:26:29.377Z,7.07
2022-10-19T20:32:25.059Z,6.80
2022-10-19T20:38:19.777Z,7.25
2022-10-19T20:44:13.425Z,7.13
2022-10-19T20:50:07.224Z,7.77
2022-10-19T20:56:10.504Z,6.85
2022-10-19T21:02:03.130Z,6.43
2022-10-19T21:07:55.306Z,6.32
2022-10-19T21:13:48.861Z,7.47
2022-10-19T21:19:41.181Z,5.93
2022-10-19T21:25:33.382Z,6.07
2022-10-19T21:31:26.507Z,6.05
2022-10-19T21:37:19.112Z,6.70
2022-10-19T21:43:11.602Z,6.82
2022-10-19T21:49:04.191Z,7.43
2022-10-19T21:54:56.247Z,6.07
2022-10-19T22:00:48.471Z,5.93
2022-10-19T22:06:40.974Z,6.78
2022-10-19T22:12:34.886Z,5.53
2022-10-19T22:18:27.072Z,6.15
2022-10-19T22:24:19.610Z,6.30
2022-10-19T22:30:13.293Z,5.53
2022-10-19T22:36:06.428Z,5.85
2022-10-19T22:41:58.461Z,5.37
2022-10-19T22:47:50.101Z,5.82
2022-10-19T22:53:42.361Z,4.32
2022-10-19T22:59:34.521Z,5.13
2022-10-19T23:05:26.832Z,5.22
2022-10-19T23:11:19.687Z,4.93
2022-10-19T23:17:12.470Z,5.47
2022-10-19T23:23:04.458Z,5.18
2022-10-19T23:28:56.971Z,6.32
2022-10-19T23:34:49.729Z,5.70
2022-10-19T23:40:43.011Z,4.95
2022-10-19T23:46:35.968Z,5.78
2022-10-19T23:52:29.441Z,5.90
2022-10-19T23:58:21.708Z,4.93
